sensor_id;sensor_type;location;lat;lon;timestamp;temperature;humidity
30534;DHT22;73248;52.398;9.814;2024-01-27T00:01:22;6.80;99.90
30534;DHT22;73248;52.398;9.814;2024-01-27T00:03:47;6.80;99.90
30534;DHT22;73248;52.398;9.814;2024-01-27T00:06:13;6.80;99.90
30534;DHT22;73248;52.398;9.814;2024-01-27T00:08:39;6.80;99.90
30534;DHT22;73248;52.398;9.814;2024-01-27T00:11:07;6.80;99.90
30534;DHT22;73248;52.398;9.814;2024-01-27T00:13:32;6.80;99.90
30534;DHT22;73248;52.398;9.814;2024-01-27T00:15:58;6.80;99.90
30534;DHT22;73248;52.398;9.814;2024-01-27T00:18:23;6.80;99.90
30534;DHT22;73248;52.398;9.814;2024-01-27T00:20:49;6.70;99.90
30534;DHT22;73248;52.398;9.814;2024-01-27T00:23:15;6.70;99.90
30534;DHT22;73248;52.398;9.814;2024-01-27T00:25:43;6.80;99.90
30534;DHT22;73248;52.398;9.814;2024-01-27T00:28:08;6.80;99.90
30534;DHT22;73248;52.398;9.814;2024-01-27T00:30:34;6.80;99.90
30534;DHT22;73248;52.398;9.814;2024-01-27T00:32:59;6.80;99.90
30534;DHT22;73248;52.398;9.814;2024-01-27T00:35:27;6.80;99.90
30534;DHT22;73248;52.398;9.814;2024-01-27T00:37:53;6.80;99.90
30534;DHT22;73248;52.398;9.814;2024-01-27T00:40:19;6.80;99.90
30534;DHT22;73248;52.398;9.814;2024-01-27T00:42:44;6.80;99.90
30534;DHT22;73248;52.398;9.814;2024-01-27T00:45:10;6.80;99.90
30534;DHT22;73248;52.398;9.814;2024-01-27T00:47:40;6.80;99.90
30534;DHT22;73248;52.398;9.814;2024-01-27T00:50:06;6.80;99.90
30534;DHT22;73248;52.398;9.814;2024-01-27T00:52:34;6.90;99.90
30534;DHT22;73248;52.398;9.814;2024-01-27T00:54:59;6.80;99.90
30534;DHT22;73248;52.398;9.814;2024-01-27T00:57:25;6.80;99.90
30534;DHT22;73248;52.398;9.814;2024-01-27T00:59:50;6.90;99.90
30534;DHT22;73248;52.398;9.814;2024-01-27T01:02:18;6.90;99.90
30534;DHT22;73248;52.398;9.814;2024-01-27T01:04:46;6.80;99.90
30534;DHT22;73248;52.398;9.814;2024-01-27T01:07:13;6.90;99.90
30534;DHT22;73248;52.398;9.814;2024-01-27T01:09:38;6.80;99.90
30534;DHT22;73248;52.398;9.814;2024-01-27T01:12:04;6.80;99.90
30534;DHT22;73248;52.398;9.814;2024-01-27T01:14:30;6.80;99.90
30534;DHT22;73248;52.398;9.814;2024-01-27T01:16:58;6.90;99.90
30534;DHT22;73248;52.398;9.814;2024-01-27T01:19:24;6.90;99.90
30534;DHT22;73248;52.398;9.814;2024-01-27T01:21:49;6.80;99.90
30534;DHT22;73248;52.398;9.814;2024-01-27T01:24:15;6.70;99.90
30534;DHT22;73248;52.398;9.814;2024-01-27T01:26:40;6.70;99.90
30534;DHT22;73248;52.398;9.814;2024-01-27T01:29:06;6.70;99.90
30534;DHT22;73248;52.398;9.814;2024-01-27T01:31:34;6.60;99.90
30534;DHT22;73248;52.398;9.814;2024-01-27T01:33:59;6.70;99.90
30534;DHT22;73248;52.398;9.814;2024-01-27T01:36:25;6.60;99.90
30534;DHT22;73248;52.398;9.814;2024-01-27T01:38:50;6.60;99.90
30534;DHT22;73248;52.398;9.814;2024-01-27T01:41:18;6.50;99.90
30534;DHT22;73248;52.398;9.814;2024-01-27T01:43:44;6.40;99.90
30534;DHT22;73248;52.398;9.814;2024-01-27T01:46:09;6.40;99.90
30534;DHT22;73248;52.398;9.814;2024-01-27T01:48:38;6.30;99.90
30534;DHT22;73248;52.398;9.814;2024-01-27T01:51:07;6.30;99.90
30534;DHT22;73248;52.398;9.814;2024-01-27T01:53:33;6.20;99.90
30534;DHT22;73248;52.398;9.814;2024-01-27T01:55:59;6.20;99.90
30534;DHT22;73248;52.398;9.814;2024-01-27T01:58:25;6.10;99.90
30534;DHT22;73248;52.398;9.814;2024-01-27T02:00:50;6.10;99.90
30534;DHT22;73248;52.398;9.814;2024-01-27T02:03:16;6.00;99.90
30534;DHT22;73248;52.398;9.814;2024-01-27T02:05:41;6.00;99.90
30534;DHT22;73248;52.398;9.814;2024-01-27T02:08:07;6.00;99.90
30534;DHT22;73248;52.398;9.814;2024-01-27T02:10:35;5.90;99.90
30534;DHT22;73248;52.398;9.814;2024-01-27T02:13:15;5.90;99.90
30534;DHT22;73248;52.398;9.814;2024-01-27T02:15:42;5.80;99.90
30534;DHT22;73248;52.398;9.814;2024-01-27T02:18:13;5.80;99.90
30534;DHT22;73248;52.398;9.814;2024-01-27T02:20:39;5.70;99.90
30534;DHT22;73248;52.398;9.814;2024-01-27T02:23:05;5.70;99.90
30534;DHT22;73248;52.398;9.814;2024-01-27T02:25:34;5.60;99.90
30534;DHT22;73248;52.398;9.814;2024-01-27T02:28:01;5.60;99.90
30534;DHT22;73248;52.398;9.814;2024-01-27T02:30:30;5.60;99.90
30534;DHT22;73248;52.398;9.814;2024-01-27T02:32:56;5.60;99.90
30534;DHT22;73248;52.398;9.814;2024-01-27T02:35:22;5.60;99.90
30534;DHT22;73248;52.398;9.814;2024-01-27T02:37:48;5.50;99.90
30534;DHT22;73248;52.398;9.814;2024-01-27T02:40:14;5.60;99.90
30534;DHT22;73248;52.398;9.814;2024-01-27T02:42:40;5.50;99.90
30534;DHT22;73248;52.398;9.814;2024-01-27T02:45:09;5.50;99.90
30534;DHT22;73248;52.398;9.814;2024-01-27T02:47:35;5.40;99.90
30534;DHT22;73248;52.398;9.814;2024-01-27T02:50:01;5.40;99.90
30534;DHT22;73248;52.398;9.814;2024-01-27T02:52:26;5.50;99.90
30534;DHT22;73248;52.398;9.814;2024-01-27T02:54:53;5.40;99.90
30534;DHT22;73248;52.398;9.814;2024-01-27T02:57:18;5.40;99.90
30534;DHT22;73248;52.398;9.814;2024-01-27T02:59:48;5.40;99.90
30534;DHT22;73248;52.398;9.814;2024-01-27T03:02:13;5.40;99.90
30534;DHT22;73248;52.398;9.814;2024-01-27T03:04:39;5.40;99.90
30534;DHT22;73248;52.398;9.814;2024-01-27T03:07:04;5.40;99.90
30534;DHT22;73248;52.398;9.814;2024-01-27T03:09:30;5.40;99.90
30534;DHT22;73248;52.398;9.814;2024-01-27T03:11:57;5.40;99.90
30534;DHT22;73248;52.398;9.814;2024-01-27T03:14:23;5.40;99.90
30534;DHT22;73248;52.398;9.814;2024-01-27T03:16:49;5.30;99.90
30534;DHT22;73248;52.398;9.814;2024-01-27T03:19:14;5.30;99.90
30534;DHT22;73248;52.398;9.814;2024-01-27T03:21:42;5.30;99.90
30534;DHT22;73248;52.398;9.814;2024-01-27T03:24:08;5.30;99.90
30534;DHT22;73248;52.398;9.814;2024-01-27T03:26:33;5.30;99.90
30534;DHT22;73248;52.398;9.814;2024-01-27T03:29:01;5.30;99.90
30534;DHT22;73248;52.398;9.814;2024-01-27T03:31:30;5.30;99.90
30534;DHT22;73248;52.398;9.814;2024-01-27T03:33:58;5.30;99.90
30534;DHT22;73248;52.398;9.814;2024-01-27T03:36:24;5.30;99.90
30534;DHT22;73248;52.398;9.814;2024-01-27T03:38:50;5.20;99.90
30534;DHT22;73248;52.398;9.814;2024-01-27T03:41:15;5.20;99.90
30534;DHT22;73248;52.398;9.814;2024-01-27T03:43:43;5.20;99.90
30534;DHT22;73248;52.398;9.814;2024-01-27T03:46:09;5.20;99.90
30534;DHT22;73248;52.398;9.814;2024-01-27T03:48:35;5.20;99.90
30534;DHT22;73248;52.398;9.814;2024-01-27T03:51:01;5.10;99.90
30534;DHT22;73248;52.398;9.814;2024-01-27T03:53:26;5.10;99.90
30534;DHT22;73248;52.398;9.814;2024-01-27T03:55:55;5.10;99.90
30534;DHT22;73248;52.398;9.814;2024-01-27T03:58:26;5.00;99.90
30534;DHT22;73248;52.398;9.814;2024-01-27T04:00:51;5.10;99.90
30534;DHT22;73248;52.398;9.814;2024-01-27T04:03:17;5.10;99.90
30534;DHT22;73248;52.398;9.814;2024-01-27T04:05:43;5.10;99.90
30534;DHT22;73248;52.398;9.814;2024-01-27T04:08:08;5.10;99.90
30534;DHT22;73248;52.398;9.814;2024-01-27T04:10:36;5.10;99.90
30534;DHT22;73248;52.398;9.814;2024-01-27T04:13:05;5.10;99.90
30534;DHT22;73248;52.398;9.814;2024-01-27T04:15:33;5.10;99.90
30534;DHT22;73248;52.398;9.814;2024-01-27T04:18:04;5.10;99.90
30534;DHT22;73248;52.398;9.814;2024-01-27T04:20:32;5.00;99.90
30534;DHT22;73248;52.398;9.814;2024-01-27T04:22:58;5.00;99.90
30534;DHT22;73248;52.398;9.814;2024-01-27T04:25:26;5.00;99.90
30534;DHT22;73248;52.398;9.814;2024-01-27T04:27:51;5.00;99.90
30534;DHT22;73248;52.398;9.814;2024-01-27T04:30:17;5.00;99.90
30534;DHT22;73248;52.398;9.814;2024-01-27T04:32:42;5.00;99.90
30534;DHT22;73248;52.398;9.814;2024-01-27T04:35:09;5.00;99.90
30534;DHT22;73248;52.398;9.814;2024-01-27T04:37:35;5.00;99.90
30534;DHT22;73248;52.398;9.814;2024-01-27T04:40:01;5.00;99.90
30534;DHT22;73248;52.398;9.814;2024-01-27T04:42:26;5.00;99.90
30534;DHT22;73248;52.398;9.814;2024-01-27T04:44:54;5.00;99.90
30534;DHT22;73248;52.398;9.814;2024-01-27T04:47:20;5.00;99.90
30534;DHT22;73248;52.398;9.814;2024-01-27T04:49:45;4.90;99.90
30534;DHT22;73248;52.398;9.814;2024-01-27T04:52:11;4.90;99.90
30534;DHT22;73248;52.398;9.814;2024-01-27T04:54:36;4.90;99.90
30534;DHT22;73248;52.398;9.814;2024-01-27T04:57:02;4.90;99.90
30534;DHT22;73248;52.398;9.814;2024-01-27T04:59:28;4.90;99.90
30534;DHT22;73248;52.398;9.814;2024-01-27T05:01:53;4.90;99.90
30534;DHT22;73248;52.398;9.814;2024-01-27T05:04:19;4.90;99.90
30534;DHT22;73248;52.398;9.814;2024-01-27T05:06:45;4.90;99.90
30534;DHT22;73248;52.398;9.814;2024-01-27T05:09:10;4.90;99.90
30534;DHT22;73248;52.398;9.814;2024-01-27T05:11:39;4.80;99.90
30534;DHT22;73248;52.398;9.814;2024-01-27T05:14:05;4.80;99.90
30534;DHT22;73248;52.398;9.814;2024-01-27T05:16:30;4.80;99.90
30534;DHT22;73248;52.398;9.814;2024-01-27T05:18:57;4.80;99.90
30534;DHT22;73248;52.398;9.814;2024-01-27T05:21:22;4.80;99.90
30534;DHT22;73248;52.398;9.814;2024-01-27T05:23:50;4.80;99.90
30534;DHT22;73248;52.398;9.814;2024-01-27T05:26:16;4.80;99.90
30534;DHT22;73248;52.398;9.814;2024-01-27T05:28:42;4.70;99.90
30534;DHT22;73248;52.398;9.814;2024-01-27T05:31:07;4.80;99.90
30534;DHT22;73248;52.398;9.814;2024-01-27T05:33:37;4.80;99.90
30534;DHT22;73248;52.398;9.814;2024-01-27T05:36:03;4.70;99.90
30534;DHT22;73248;52.398;9.814;2024-01-27T05:38:29;4.80;99.90
30534;DHT22;73248;52.398;9.814;2024-01-27T05:41:00;4.80;99.90
30534;DHT22;73248;52.398;9.814;2024-01-27T05:43:26;4.70;99.90
30534;DHT22;73248;52.398;9.814;2024-01-27T05:45:53;4.60;99.90
30534;DHT22;73248;52.398;9.814;2024-01-27T05:48:21;4.80;99.90
30534;DHT22;73248;52.398;9.814;2024-01-27T05:50:58;4.70;99.90
30534;DHT22;73248;52.398;9.814;2024-01-27T05:53:24;4.70;99.90
30534;DHT22;73248;52.398;9.814;2024-01-27T05:55:53;4.70;99.90
30534;DHT22;73248;52.398;9.814;2024-01-27T05:58:22;4.70;99.90
30534;DHT22;73248;52.398;9.814;2024-01-27T06:00:48;4.70;99.90
30534;DHT22;73248;52.398;9.814;2024-01-27T06:03:14;4.70;99.90
30534;DHT22;73248;52.398;9.814;2024-01-27T06:05:43;4.70;99.90
30534;DHT22;73248;52.398;9.814;2024-01-27T06:08:09;4.70;99.90
30534;DHT22;73248;52.398;9.814;2024-01-27T06:10:35;4.60;99.90
30534;DHT22;73248;52.398;9.814;2024-01-27T06:13:02;4.70;99.90
30534;DHT22;73248;52.398;9.814;2024-01-27T06:15:28;4.70;99.90
30534;DHT22;73248;52.398;9.814;2024-01-27T06:17:54;4.70;99.90
30534;DHT22;73248;52.398;9.814;2024-01-27T06:20:23;4.70;99.90
30534;DHT22;73248;52.398;9.814;2024-01-27T06:22:50;4.70;99.90
30534;DHT22;73248;52.398;9.814;2024-01-27T06:25:17;4.70;99.90
30534;DHT22;73248;52.398;9.814;2024-01-27T06:27:43;4.60;99.90
30534;DHT22;73248;52.398;9.814;2024-01-27T06:30:09;4.60;99.90
30534;DHT22;73248;52.398;9.814;2024-01-27T06:32:36;4.60;99.90
30534;DHT22;73248;52.398;9.814;2024-01-27T06:35:02;4.60;99.90
30534;DHT22;73248;52.398;9.814;2024-01-27T06:37:28;4.60;99.90
30534;DHT22;73248;52.398;9.814;2024-01-27T06:39:54;4.60;99.90
30534;DHT22;73248;52.398;9.814;2024-01-27T06:42:22;4.60;99.90
30534;DHT22;73248;52.398;9.814;2024-01-27T06:44:50;4.60;99.90
30534;DHT22;73248;52.398;9.814;2024-01-27T06:47:18;4.60;99.90
30534;DHT22;73248;52.398;9.814;2024-01-27T06:49:46;4.50;99.90
30534;DHT22;73248;52.398;9.814;2024-01-27T06:52:11;4.60;99.90
30534;DHT22;73248;52.398;9.814;2024-01-27T06:54:37;4.60;99.90
30534;DHT22;73248;52.398;9.814;2024-01-27T06:57:06;4.60;99.90
30534;DHT22;73248;52.398;9.814;2024-01-27T06:59:34;4.60;99.90
30534;DHT22;73248;52.398;9.814;2024-01-27T07:02:02;4.60;99.90
30534;DHT22;73248;52.398;9.814;2024-01-27T07:04:27;4.60;99.90
30534;DHT22;73248;52.398;9.814;2024-01-27T07:06:53;4.70;99.90
30534;DHT22;73248;52.398;9.814;2024-01-27T07:09:18;4.70;99.90
30534;DHT22;73248;52.398;9.814;2024-01-27T07:11:49;4.70;99.90
30534;DHT22;73248;52.398;9.814;2024-01-27T07:14:17;4.60;99.90
30534;DHT22;73248;52.398;9.814;2024-01-27T07:16:43;4.70;99.90
30534;DHT22;73248;52.398;9.814;2024-01-27T07:19:11;4.70;99.90
30534;DHT22;73248;52.398;9.814;2024-01-27T07:21:36;4.70;99.90
30534;DHT22;73248;52.398;9.814;2024-01-27T07:24:04;4.70;99.90
30534;DHT22;73248;52.398;9.814;2024-01-27T07:26:30;4.70;99.90
30534;DHT22;73248;52.398;9.814;2024-01-27T07:28:57;4.70;99.90
30534;DHT22;73248;52.398;9.814;2024-01-27T07:31:23;4.70;99.90
30534;DHT22;73248;52.398;9.814;2024-01-27T07:33:52;4.80;99.90
30534;DHT22;73248;52.398;9.814;2024-01-27T07:36:17;4.80;99.90
30534;DHT22;73248;52.398;9.814;2024-01-27T07:38:43;4.80;99.90
30534;DHT22;73248;52.398;9.814;2024-01-27T07:41:08;4.80;99.90
30534;DHT22;73248;52.398;9.814;2024-01-27T07:43:34;4.80;99.90
30534;DHT22;73248;52.398;9.814;2024-01-27T07:45:59;4.80;99.90
30534;DHT22;73248;52.398;9.814;2024-01-27T07:48:25;4.80;99.90
30534;DHT22;73248;52.398;9.814;2024-01-27T07:50:50;4.80;99.90
30534;DHT22;73248;52.398;9.814;2024-01-27T07:53:16;4.80;99.90
30534;DHT22;73248;52.398;9.814;2024-01-27T07:55:42;4.90;99.90
30534;DHT22;73248;52.398;9.814;2024-01-27T07:58:10;4.90;99.90
30534;DHT22;73248;52.398;9.814;2024-01-27T08:00:36;4.90;99.90
30534;DHT22;73248;52.398;9.814;2024-01-27T08:03:01;4.90;99.90
30534;DHT22;73248;52.398;9.814;2024-01-27T08:05:27;4.90;99.90
30534;DHT22;73248;52.398;9.814;2024-01-27T08:07:53;5.00;99.90
30534;DHT22;73248;52.398;9.814;2024-01-27T08:10:21;5.00;99.90
30534;DHT22;73248;52.398;9.814;2024-01-27T08:12:47;5.00;99.90
30534;DHT22;73248;52.398;9.814;2024-01-27T08:15:13;5.10;99.90
30534;DHT22;73248;52.398;9.814;2024-01-27T08:17:39;5.00;99.90
30534;DHT22;73248;52.398;9.814;2024-01-27T08:20:05;5.20;99.90
30534;DHT22;73248;52.398;9.814;2024-01-27T08:22:31;5.10;99.90
30534;DHT22;73248;52.398;9.814;2024-01-27T08:24:56;5.20;99.90
30534;DHT22;73248;52.398;9.814;2024-01-27T08:27:26;5.20;99.90
30534;DHT22;73248;52.398;9.814;2024-01-27T08:29:52;5.20;99.90
30534;DHT22;73248;52.398;9.814;2024-01-27T08:32:20;5.30;99.90
30534;DHT22;73248;52.398;9.814;2024-01-27T08:34:48;5.30;99.90
30534;DHT22;73248;52.398;9.814;2024-01-27T08:37:18;5.40;99.90
30534;DHT22;73248;52.398;9.814;2024-01-27T08:39:47;5.40;99.90
30534;DHT22;73248;52.398;9.814;2024-01-27T08:42:13;5.40;99.90
30534;DHT22;73248;52.398;9.814;2024-01-27T08:44:40;5.40;99.90
30534;DHT22;73248;52.398;9.814;2024-01-27T08:47:06;5.40;99.90
30534;DHT22;73248;52.398;9.814;2024-01-27T08:49:32;5.50;99.90
30534;DHT22;73248;52.398;9.814;2024-01-27T08:52:02;5.50;99.90
30534;DHT22;73248;52.398;9.814;2024-01-27T08:54:27;5.50;99.90
30534;DHT22;73248;52.398;9.814;2024-01-27T08:56:53;5.50;99.90
30534;DHT22;73248;52.398;9.814;2024-01-27T08:59:18;5.60;99.90
30534;DHT22;73248;52.398;9.814;2024-01-27T09:01:46;5.60;99.90
30534;DHT22;73248;52.398;9.814;2024-01-27T09:04:21;5.60;99.90
30534;DHT22;73248;52.398;9.814;2024-01-27T09:06:47;5.70;99.90
30534;DHT22;73248;52.398;9.814;2024-01-27T09:09:12;5.70;99.90
30534;DHT22;73248;52.398;9.814;2024-01-27T09:11:38;5.80;99.90
30534;DHT22;73248;52.398;9.814;2024-01-27T09:14:04;5.80;99.90
30534;DHT22;73248;52.398;9.814;2024-01-27T09:16:32;5.90;99.90
30534;DHT22;73248;52.398;9.814;2024-01-27T09:18:58;5.90;99.90
30534;DHT22;73248;52.398;9.814;2024-01-27T09:21:23;5.90;99.90
30534;DHT22;73248;52.398;9.814;2024-01-27T09:23:56;5.90;99.90
30534;DHT22;73248;52.398;9.814;2024-01-27T09:26:22;6.00;99.90
30534;DHT22;73248;52.398;9.814;2024-01-27T09:28:48;6.10;99.90
30534;DHT22;73248;52.398;9.814;2024-01-27T09:31:23;6.10;99.90
30534;DHT22;73248;52.398;9.814;2024-01-27T09:33:50;6.20;99.90
30534;DHT22;73248;52.398;9.814;2024-01-27T09:36:19;6.20;99.90
30534;DHT22;73248;52.398;9.814;2024-01-27T09:38:46;6.30;99.90
30534;DHT22;73248;52.398;9.814;2024-01-27T09:41:13;6.40;99.90
30534;DHT22;73248;52.398;9.814;2024-01-27T09:43:43;6.40;99.90
30534;DHT22;73248;52.398;9.814;2024-01-27T09:46:15;6.40;99.90
30534;DHT22;73248;52.398;9.814;2024-01-27T09:48:42;6.50;99.90
30534;DHT22;73248;52.398;9.814;2024-01-27T09:51:11;6.60;99.90
30534;DHT22;73248;52.398;9.814;2024-01-27T09:53:37;6.60;99.90
30534;DHT22;73248;52.398;9.814;2024-01-27T09:56:03;6.70;99.90
30534;DHT22;73248;52.398;9.814;2024-01-27T09:58:32;6.70;99.90
30534;DHT22;73248;52.398;9.814;2024-01-27T10:00:58;6.80;99.90
30534;DHT22;73248;52.398;9.814;2024-01-27T10:03:28;6.90;99.90
30534;DHT22;73248;52.398;9.814;2024-01-27T10:05:55;6.90;99.90
30534;DHT22;73248;52.398;9.814;2024-01-27T10:08:24;7.00;99.90
30534;DHT22;73248;52.398;9.814;2024-01-27T10:10:54;7.10;99.90
30534;DHT22;73248;52.398;9.814;2024-01-27T10:13:22;7.10;99.90
30534;DHT22;73248;52.398;9.814;2024-01-27T10:16:04;7.10;99.90
30534;DHT22;73248;52.398;9.814;2024-01-27T10:18:31;7.20;99.90
30534;DHT22;73248;52.398;9.814;2024-01-27T10:20:57;7.30;99.90
30534;DHT22;73248;52.398;9.814;2024-01-27T10:23:23;7.30;99.90
30534;DHT22;73248;52.398;9.814;2024-01-27T10:25:49;7.50;99.90
30534;DHT22;73248;52.398;9.814;2024-01-27T10:28:15;7.70;99.90
30534;DHT22;73248;52.398;9.814;2024-01-27T10:30:41;7.80;99.90
30534;DHT22;73248;52.398;9.814;2024-01-27T10:33:11;7.90;99.90
30534;DHT22;73248;52.398;9.814;2024-01-27T10:35:43;8.00;99.90
30534;DHT22;73248;52.398;9.814;2024-01-27T10:38:09;8.10;99.90
30534;DHT22;73248;52.398;9.814;2024-01-27T10:40:36;8.30;99.90
30534;DHT22;73248;52.398;9.814;2024-01-27T10:43:05;8.50;99.90
30534;DHT22;73248;52.398;9.814;2024-01-27T10:45:38;8.60;99.90
30534;DHT22;73248;52.398;9.814;2024-01-27T10:48:05;8.70;99.90
30534;DHT22;73248;52.398;9.814;2024-01-27T10:50:34;8.80;99.90
30534;DHT22;73248;52.398;9.814;2024-01-27T10:53:02;8.80;99.90
30534;DHT22;73248;52.398;9.814;2024-01-27T10:55:31;8.90;99.90
30534;DHT22;73248;52.398;9.814;2024-01-27T10:57:58;8.90;99.90
30534;DHT22;73248;52.398;9.814;2024-01-27T11:00:27;9.10;99.90
30534;DHT22;73248;52.398;9.814;2024-01-27T11:03:04;9.20;99.90
30534;DHT22;73248;52.398;9.814;2024-01-27T11:05:35;9.30;99.90
30534;DHT22;73248;52.398;9.814;2024-01-27T11:08:02;9.40;99.90
30534;DHT22;73248;52.398;9.814;2024-01-27T11:10:30;9.50;99.90
30534;DHT22;73248;52.398;9.814;2024-01-27T11:13:04;9.60;99.90
30534;DHT22;73248;52.398;9.814;2024-01-27T11:15:30;9.60;99.90
30534;DHT22;73248;52.398;9.814;2024-01-27T11:17:59;9.80;99.90
30534;DHT22;73248;52.398;9.814;2024-01-27T11:20:25;10.00;99.90
30534;DHT22;73248;52.398;9.814;2024-01-27T11:22:51;9.90;99.90
30534;DHT22;73248;52.398;9.814;2024-01-27T11:25:18;10.00;99.90
30534;DHT22;73248;52.398;9.814;2024-01-27T11:27:45;10.20;99.90
30534;DHT22;73248;52.398;9.814;2024-01-27T11:30:25;10.50;99.90
30534;DHT22;73248;52.398;9.814;2024-01-27T11:32:50;10.50;99.90
30534;DHT22;73248;52.398;9.814;2024-01-27T11:35:19;10.70;99.90
30534;DHT22;73248;52.398;9.814;2024-01-27T11:37:47;10.80;99.90
30534;DHT22;73248;52.398;9.814;2024-01-27T11:40:13;10.90;99.90
30534;DHT22;73248;52.398;9.814;2024-01-27T11:42:41;11.10;99.90
30534;DHT22;73248;52.398;9.814;2024-01-27T11:45:08;11.40;99.90
30534;DHT22;73248;52.398;9.814;2024-01-27T11:47:34;11.60;99.90
30534;DHT22;73248;52.398;9.814;2024-01-27T11:50:00;11.90;99.80
30534;DHT22;73248;52.398;9.814;2024-01-27T11:52:28;12.10;99.50
30534;DHT22;73248;52.398;9.814;2024-01-27T11:54:58;12.60;99.20
30534;DHT22;73248;52.398;9.814;2024-01-27T11:57:29;12.60;97.90
30534;DHT22;73248;52.398;9.814;2024-01-27T11:59:57;12.70;97.70
30534;DHT22;73248;52.398;9.814;2024-01-27T12:02:23;12.80;97.20
30534;DHT22;73248;52.398;9.814;2024-01-27T12:04:54;12.70;96.90
30534;DHT22;73248;52.398;9.814;2024-01-27T12:07:22;12.80;97.10
30534;DHT22;73248;52.398;9.814;2024-01-27T12:09:52;13.10;97.30
30534;DHT22;73248;52.398;9.814;2024-01-27T12:12:18;13.10;96.10
30534;DHT22;73248;52.398;9.814;2024-01-27T12:14:48;12.80;96.10
30534;DHT22;73248;52.398;9.814;2024-01-27T12:17:14;12.60;96.20
30534;DHT22;73248;52.398;9.814;2024-01-27T12:19:46;12.40;96.20
30534;DHT22;73248;52.398;9.814;2024-01-27T12:22:25;12.20;96.20
30534;DHT22;73248;52.398;9.814;2024-01-27T12:25:08;11.70;96.40
30534;DHT22;73248;52.398;9.814;2024-01-27T12:27:34;11.70;97.00
30534;DHT22;73248;52.398;9.814;2024-01-27T12:30:01;11.60;96.80
30534;DHT22;73248;52.398;9.814;2024-01-27T12:32:26;11.50;97.30
30534;DHT22;73248;52.398;9.814;2024-01-27T12:34:52;11.40;96.90
30534;DHT22;73248;52.398;9.814;2024-01-27T12:37:20;11.20;96.90
30534;DHT22;73248;52.398;9.814;2024-01-27T12:39:46;10.70;96.90
30534;DHT22;73248;52.398;9.814;2024-01-27T12:42:18;10.70;97.30
30534;DHT22;73248;52.398;9.814;2024-01-27T12:44:44;10.60;97.60
30534;DHT22;73248;52.398;9.814;2024-01-27T12:47:10;10.50;97.80
30534;DHT22;73248;52.398;9.814;2024-01-27T12:49:39;10.60;98.20
30534;DHT22;73248;52.398;9.814;2024-01-27T12:52:05;10.60;97.60
30534;DHT22;73248;52.398;9.814;2024-01-27T12:54:31;10.60;97.80
30534;DHT22;73248;52.398;9.814;2024-01-27T12:56:57;10.60;97.70
30534;DHT22;73248;52.398;9.814;2024-01-27T12:59:24;10.50;97.70
30534;DHT22;73248;52.398;9.814;2024-01-27T13:01:50;10.60;98.00
30534;DHT22;73248;52.398;9.814;2024-01-27T13:04:16;10.60;97.60
30534;DHT22;73248;52.398;9.814;2024-01-27T13:06:41;10.60;97.70
30534;DHT22;73248;52.398;9.814;2024-01-27T13:09:08;10.80;97.80
30534;DHT22;73248;52.398;9.814;2024-01-27T13:11:37;11.00;97.90
30534;DHT22;73248;52.398;9.814;2024-01-27T13:14:03;11.40;97.70
30534;DHT22;73248;52.398;9.814;2024-01-27T13:16:28;11.50;97.00
30534;DHT22;73248;52.398;9.814;2024-01-27T13:18:56;11.70;97.50
30534;DHT22;73248;52.398;9.814;2024-01-27T13:21:26;12.10;97.50
30534;DHT22;73248;52.398;9.814;2024-01-27T13:23:52;12.40;97.20
30534;DHT22;73248;52.398;9.814;2024-01-27T13:26:20;12.70;96.40
30534;DHT22;73248;52.398;9.814;2024-01-27T13:28:46;13.00;96.70
30534;DHT22;73248;52.398;9.814;2024-01-27T13:31:16;13.30;95.10
30534;DHT22;73248;52.398;9.814;2024-01-27T13:33:41;13.20;95.10
30534;DHT22;73248;52.398;9.814;2024-01-27T13:36:09;13.40;95.20
30534;DHT22;73248;52.398;9.814;2024-01-27T13:38:37;13.80;95.90
30534;DHT22;73248;52.398;9.814;2024-01-27T13:41:03;14.20;96.10
30534;DHT22;73248;52.398;9.814;2024-01-27T13:43:29;14.30;94.90
30534;DHT22;73248;52.398;9.814;2024-01-27T13:45:55;14.40;94.20
30534;DHT22;73248;52.398;9.814;2024-01-27T13:48:24;14.30;93.70
30534;DHT22;73248;52.398;9.814;2024-01-27T13:50:49;14.20;93.40
30534;DHT22;73248;52.398;9.814;2024-01-27T13:53:15;14.10;93.60
30534;DHT22;73248;52.398;9.814;2024-01-27T13:55:41;14.20;93.70
30534;DHT22;73248;52.398;9.814;2024-01-27T13:58:08;14.40;93.40
30534;DHT22;73248;52.398;9.814;2024-01-27T14:00:33;14.50;93.60
30534;DHT22;73248;52.398;9.814;2024-01-27T14:03:02;14.30;93.60
30534;DHT22;73248;52.398;9.814;2024-01-27T14:05:28;14.30;93.40
30534;DHT22;73248;52.398;9.814;2024-01-27T14:07:55;14.40;93.30
30534;DHT22;73248;52.398;9.814;2024-01-27T14:10:20;14.50;93.20
30534;DHT22;73248;52.398;9.814;2024-01-27T14:12:48;14.70;93.60
30534;DHT22;73248;52.398;9.814;2024-01-27T14:15:14;14.70;93.30
30534;DHT22;73248;52.398;9.814;2024-01-27T14:17:40;14.60;92.90
30534;DHT22;73248;52.398;9.814;2024-01-27T14:20:08;14.30;92.70
30534;DHT22;73248;52.398;9.814;2024-01-27T14:22:35;14.20;92.90
30534;DHT22;73248;52.398;9.814;2024-01-27T14:25:00;14.10;92.60
30534;DHT22;73248;52.398;9.814;2024-01-27T14:27:26;13.90;92.60
30534;DHT22;73248;52.398;9.814;2024-01-27T14:29:55;13.80;93.10
30534;DHT22;73248;52.398;9.814;2024-01-27T14:32:22;13.40;92.90
30534;DHT22;73248;52.398;9.814;2024-01-27T14:34:48;13.50;92.80
30534;DHT22;73248;52.398;9.814;2024-01-27T14:37:15;13.10;92.90
30534;DHT22;73248;52.398;9.814;2024-01-27T14:39:46;13.10;93.20
30534;DHT22;73248;52.398;9.814;2024-01-27T14:42:17;12.80;93.20
30534;DHT22;73248;52.398;9.814;2024-01-27T14:44:43;12.40;93.40
30534;DHT22;73248;52.398;9.814;2024-01-27T14:47:11;12.00;93.60
30534;DHT22;73248;52.398;9.814;2024-01-27T14:49:36;11.60;93.70
30534;DHT22;73248;52.398;9.814;2024-01-27T14:52:06;11.20;94.00
30534;DHT22;73248;52.398;9.814;2024-01-27T14:54:33;10.90;94.50
30534;DHT22;73248;52.398;9.814;2024-01-27T14:56:58;10.70;94.90
30534;DHT22;73248;52.398;9.814;2024-01-27T14:59:26;10.70;95.10
30534;DHT22;73248;52.398;9.814;2024-01-27T15:01:53;10.60;95.10
30534;DHT22;73248;52.398;9.814;2024-01-27T15:04:18;10.30;95.40
30534;DHT22;73248;52.398;9.814;2024-01-27T15:06:44;10.10;95.70
30534;DHT22;73248;52.398;9.814;2024-01-27T15:09:11;9.90;96.50
30534;DHT22;73248;52.398;9.814;2024-01-27T15:11:40;9.80;96.70
30534;DHT22;73248;52.398;9.814;2024-01-27T15:14:08;9.80;96.70
30534;DHT22;73248;52.398;9.814;2024-01-27T15:16:34;9.60;96.80
30534;DHT22;73248;52.398;9.814;2024-01-27T15:19:02;9.50;96.90
30534;DHT22;73248;52.398;9.814;2024-01-27T15:21:28;9.40;97.10
30534;DHT22;73248;52.398;9.814;2024-01-27T15:23:59;9.30;97.20
30534;DHT22;73248;52.398;9.814;2024-01-27T15:26:27;9.20;97.40
30534;DHT22;73248;52.398;9.814;2024-01-27T15:28:52;9.10;97.60
30534;DHT22;73248;52.398;9.814;2024-01-27T15:31:20;9.10;97.60
30534;DHT22;73248;52.398;9.814;2024-01-27T15:33:46;9.00;97.60
30534;DHT22;73248;52.398;9.814;2024-01-27T15:36:11;9.00;97.80
30534;DHT22;73248;52.398;9.814;2024-01-27T15:38:40;9.00;97.80
30534;DHT22;73248;52.398;9.814;2024-01-27T15:41:05;8.90;98.00